createdAt,value
2023-05-11T00:00:37.859Z,49.33
2023-05-11T00:03:05.157Z,56.47
2023-05-11T00:05:31.879Z,47.88
2023-05-11T00:07:59.145Z,48.80
2023-05-11T00:10:25.835Z,50.65
2023-05-11T00:12:52.745Z,52.58
2023-05-11T00:15:19.374Z,50.58
2023-05-11T00:17:46.630Z,55.33
2023-05-11T00:20:13.239Z,52.58
2023-05-11T00:22:41.205Z,52.38
2023-05-11T00:25:09.386Z,54.15
2023-05-11T00:27:36.314Z,52.00
2023-05-11T00:30:02.995Z,57.17
2023-05-11T00:32:30.194Z,55.17
2023-05-11T00:34:56.847Z,52.42
2023-05-11T00:37:25.913Z,55.67
2023-05-11T00:39:52.845Z,52.97
2023-05-11T00:42:20.312Z,53.05
2023-05-11T00:44:47.064Z,52.05
2023-05-11T00:47:14.461Z,54.05
2023-05-11T00:49:41.920Z,54.40
2023-05-11T00:52:09.504Z,56.42
2023-05-11T00:54:36.709Z,56.35
2023-05-11T00:57:04.280Z,54.60
2023-05-11T00:59:31.057Z,54.95
2023-05-11T01:01:58.439Z,55.92
2023-05-11T01:04:25.806Z,56.70
2023-05-11T01:07:24.163Z,66.90
2023-05-11T01:10:09.801Z,57.78
2023-05-11T01:12:56.492Z,63.65
2023-05-11T01:15:30.752Z,58.92
2023-05-11T01:18:16.676Z,63.08
2023-05-11T01:20:47.068Z,73.00
2023-05-11T01:23:44.562Z,60.78
2023-05-11T01:26:31.418Z,61.15
2023-05-11T01:29:10.713Z,63.55
2023-05-11T01:31:42.710Z,65.93
2023-05-11T01:34:24.503Z,66.55
2023-05-11T01:37:05.379Z,65.20
2023-05-11T01:39:42.859Z,69.30
2023-05-11T01:42:10.890Z,70.82
2023-05-11T01:44:42.206Z,73.20
2023-05-11T01:47:12.125Z,74.65
2023-05-11T01:49:42.236Z,75.07
2023-05-11T01:52:11.330Z,77.43
2023-05-11T01:54:40.567Z,76.97
2023-05-11T01:57:09.702Z,79.80
2023-05-11T01:59:39.585Z,87.15
2023-05-11T02:02:08.701Z,78.28
2023-05-11T02:04:37.275Z,84.85
2023-05-11T02:07:05.709Z,87.82
2023-05-11T02:09:34.626Z,81.93
2023-05-11T02:12:04.846Z,83.40
2023-05-11T02:14:36.389Z,78.60
2023-05-11T02:17:05.611Z,82.05
2023-05-11T02:19:35.260Z,74.22
2023-05-11T02:22:04.192Z,87.85
2023-05-11T02:24:33.265Z,85.10
2023-05-11T02:27:00.888Z,79.25
2023-05-11T02:29:27.830Z,84.85
2023-05-11T02:32:06.676Z,85.78
2023-05-11T02:34:41.049Z,78.97
2023-05-11T02:37:13.196Z,81.30
2023-05-11T02:39:44.406Z,87.43
2023-05-11T02:42:15.566Z,84.50
2023-05-11T02:44:54.912Z,88.90
2023-05-11T02:47:25.571Z,83.13
2023-05-11T02:49:57.327Z,90.13
2023-05-11T02:52:28.363Z,86.93
2023-05-11T02:54:56.979Z,89.70
2023-05-11T02:57:24.491Z,92.05
2023-05-11T02:59:52.384Z,88.32
2023-05-11T03:02:19.410Z,92.70
2023-05-11T03:04:47.130Z,95.75
2023-05-11T03:07:13.947Z,85.97
2023-05-11T03:09:41.399Z,89.25
2023-05-11T03:12:09.235Z,89.03
2023-05-11T03:14:38.244Z,92.40
2023-05-11T03:17:06.721Z,92.85
2023-05-11T03:19:34.262Z,84.38
2023-05-11T03:22:01.860Z,99.85
2023-05-11T03:24:30.083Z,102.53
2023-05-11T03:26:58.363Z,94.13
2023-05-11T03:29:29.179Z,101.30
2023-05-11T03:31:55.992Z,97.43
2023-05-11T03:34:24.234Z,95.60
2023-05-11T03:36:52.392Z,95.93
2023-05-11T03:39:22.540Z,92.90
2023-05-11T03:41:50.560Z,99.85
2023-05-11T03:44:22.169Z,103.57
2023-05-11T03:46:50.803Z,101.70
2023-05-11T03:49:19.695Z,97.75
2023-05-11T03:51:47.099Z,100.95
2023-05-11T03:54:14.495Z,99.78
2023-05-11T03:56:41.219Z,102.07
2023-05-11T03:59:09.840Z,101.45
2023-05-11T04:01:36.752Z,103.43
2023-05-11T04:04:04.303Z,105.70
2023-05-11T04:06:31.410Z,110.07
2023-05-11T04:09:12.481Z,105.50
2023-05-11T04:11:39.382Z,121.38
2023-05-11T04:14:06.612Z,124.03
2023-05-11T04:16:33.498Z,122.45
2023-05-11T04:19:02.437Z,125.20
2023-05-11T04:21:29.111Z,120.63
2023-05-11T04:23:56.581Z,121.20
2023-05-11T04:26:24.330Z,124.40
2023-05-11T04:28:51.597Z,129.50
2023-05-11T04:31:18.209Z,119.07
2023-05-11T04:33:45.432Z,125.68
2023-05-11T04:36:12.497Z,129.30
2023-05-11T04:38:39.718Z,129.38
2023-05-11T04:41:08.803Z,132.32
2023-05-11T04:43:36.851Z,123.25
2023-05-11T04:46:04.034Z,126.07
2023-05-11T04:48:31.067Z,128.13
2023-05-11T04:50:58.922Z,122.53
2023-05-11T04:53:30.486Z,128.32
2023-05-11T04:55:57.825Z,130.27
2023-05-11T04:58:24.510Z,131.55
2023-05-11T05:00:51.879Z,149.13
2023-05-11T05:03:19.218Z,160.10
2023-05-11T05:05:46.713Z,169.98
2023-05-11T05:08:13.402Z,165.98
2023-05-11T05:10:40.700Z,174.00
2023-05-11T05:13:07.282Z,179.82
2023-05-11T05:15:34.523Z,172.43
2023-05-11T05:18:01.330Z,166.65
2023-05-11T05:20:29.601Z,164.40
2023-05-11T05:22:58.816Z,152.48
2023-05-11T05:25:25.783Z,156.18
2023-05-11T05:27:53.145Z,154.63
2023-05-11T05:30:20.700Z,143.25
2023-05-11T05:32:48.977Z,142.90
2023-05-11T05:35:15.674Z,131.88
2023-05-11T05:37:43.621Z,125.72
2023-05-11T05:40:10.989Z,126.93
2023-05-11T05:42:44.189Z,136.27
2023-05-11T05:45:14.869Z,125.85
2023-05-11T05:47:42.793Z,130.82
2023-05-11T05:50:10.033Z,122.55
2023-05-11T05:52:37.559Z,128.30
2023-05-11T05:55:04.515Z,129.23
2023-05-11T05:57:31.923Z,123.45
2023-05-11T05:59:58.552Z,124.80
2023-05-11T06:02:25.850Z,120.88
2023-05-11T06:04:53.366Z,123.75
2023-05-11T06:07:20.909Z,111.20
2023-05-11T06:09:47.562Z,130.77
2023-05-11T06:12:14.917Z,133.60
2023-05-11T06:14:45.745Z,130.30
2023-05-11T06:17:13.282Z,128.50
2023-05-11T06:19:40.481Z,125.15
2023-05-11T06:22:09.326Z,121.07
2023-05-11T06:24:36.486Z,119.65
2023-05-11T06:27:04.599Z,121.65
2023-05-11T06:29:32.382Z,120.13
2023-05-11T06:32:01.740Z,108.72
2023-05-11T06:34:31.061Z,110.43
2023-05-11T06:37:02.791Z,119.60
2023-05-11T06:39:29.405Z,110.40
2023-05-11T06:41:58.687Z,109.07
2023-05-11T06:44:28.498Z,103.35
2023-05-11T06:46:57.687Z,103.72
2023-05-11T06:49:24.360Z,100.72
2023-05-11T06:51:52.087Z,97.25
2023-05-11T06:54:22.121Z,97.80
2023-05-11T06:56:49.367Z,86.47
2023-05-11T06:59:16.034Z,86.15
2023-05-11T07:01:43.346Z,85.18
2023-05-11T07:04:10.220Z,89.90
2023-05-11T07:06:37.709Z,85.13
2023-05-11T07:09:04.645Z,80.38
2023-05-11T07:11:32.454Z,86.30
2023-05-11T07:13:59.130Z,84.63
2023-05-11T07:16:26.504Z,85.03
2023-05-11T07:18:53.330Z,83.82
2023-05-11T07:21:22.309Z,78.57
2023-05-11T07:23:48.972Z,70.93
2023-05-11T07:26:16.646Z,74.78
2023-05-11T07:28:43.244Z,79.72
2023-05-11T07:31:10.668Z,81.43
2023-05-11T07:33:38.261Z,74.10
2023-05-11T07:36:06.896Z,67.47
2023-05-11T07:38:33.582Z,74.00
2023-05-11T07:41:00.698Z,80.43
2023-05-11T07:43:27.425Z,84.53
2023-05-11T07:45:54.778Z,86.30
2023-05-11T07:48:21.632Z,82.78
2023-05-11T07:50:49.829Z,92.18
2023-05-11T07:53:16.964Z,86.90
2023-05-11T07:55:44.429Z,92.05
2023-05-11T07:58:11.168Z,88.82
2023-05-11T08:00:38.504Z,85.25
2023-05-11T08:03:05.146Z,88.50
2023-05-11T08:05:38.083Z,89.63
2023-05-11T08:08:05.250Z,87.13
2023-05-11T08:10:32.519Z,83.47
2023-05-11T08:13:00.130Z,82.95
2023-05-11T08:15:28.281Z,77.07
2023-05-11T08:17:55.052Z,80.47
2023-05-11T08:20:22.425Z,72.40
2023-05-11T08:22:49.045Z,70.65
2023-05-11T08:25:16.613Z,72.95
2023-05-11T08:27:43.581Z,66.55
2023-05-11T08:30:11.863Z,72.30
2023-05-11T08:32:57.248Z,73.43
2023-05-11T08:35:26.037Z,80.45
2023-05-11T08:37:52.641Z,83.55
2023-05-11T08:40:21.355Z,81.53
2023-05-11T08:42:55.362Z,85.20
2023-05-11T08:45:22.939Z,85.78
2023-05-11T08:47:50.447Z,91.85
2023-05-11T08:50:17.359Z,93.70
2023-05-11T08:52:44.416Z,97.10
2023-05-11T08:55:11.424Z,96.75
2023-05-11T08:57:39.415Z,102.20
2023-05-11T09:00:08.355Z,93.10
2023-05-11T09:02:35.680Z,89.78
2023-05-11T09:05:04.359Z,86.40
2023-05-11T09:07:34.018Z,85.75
2023-05-11T09:10:01.356Z,82.95
2023-05-11T09:12:28.932Z,79.00
2023-05-11T09:15:01.906Z,79.30
2023-05-11T09:17:29.759Z,78.30
2023-05-11T09:20:00.453Z,73.30
2023-05-11T09:22:30.575Z,75.90
2023-05-11T09:24:59.441Z,78.50
2023-05-11T09:27:26.134Z,63.80
2023-05-11T09:29:56.296Z,71.38
2023-05-11T09:32:23.920Z,63.95
2023-05-11T09:34:50.664Z,66.65
2023-05-11T09:37:18.962Z,57.88
2023-05-11T09:40:13.958Z,63.70
2023-05-11T09:42:32.608Z,53.63
2023-05-11T09:44:59.216Z,56.38
2023-05-11T09:47:27.455Z,57.97
2023-05-11T09:49:54.218Z,57.72
2023-05-11T09:52:21.643Z,52.33
2023-05-11T09:54:51.023Z,50.53
2023-05-11T09:57:25.914Z,52.17
2023-05-11T09:59:53.182Z,59.30
2023-05-11T10:02:29.503Z,62.50
2023-05-11T10:04:58.792Z,47.20
2023-05-11T10:07:30.622Z,59.40
2023-05-11T10:10:02.127Z,52.97
2023-05-11T10:12:31.352Z,52.47
2023-05-11T10:15:02.156Z,46.95
2023-05-11T10:17:30.895Z,48.28
2023-05-11T10:19:59.579Z,49.55
2023-05-11T10:22:28.876Z,48.70
2023-05-11T10:24:59.715Z,46.45
2023-05-11T10:27:27.876Z,49.17
2023-05-11T10:29:54.708Z,52.67
2023-05-11T10:32:22.855Z,44.33
2023-05-11T10:34:52.324Z,40.10
2023-05-11T10:37:21.355Z,48.95
2023-05-11T10:39:50.528Z,48.65
2023-05-11T10:42:33.640Z,49.75
2023-05-11T10:45:38.715Z,44.47
2023-05-11T10:48:31.385Z,46.97
2023-05-11T10:51:11.464Z,41.08
2023-05-11T10:53:44.208Z,47.47
2023-05-11T10:56:27.357Z,49.40
2023-05-11T10:59:27.821Z,44.53
2023-05-11T11:01:59.250Z,36.78
2023-05-11T11:04:40.884Z,35.67
2023-05-11T11:07:08.749Z,38.13
2023-05-11T11:09:50.795Z,35.65
2023-05-11T11:12:18.765Z,40.73
2023-05-11T11:14:55.025Z,41.95
2023-05-11T11:17:25.546Z,36.35
2023-05-11T11:19:52.406Z,37.70
2023-05-11T11:22:38.581Z,38.85
2023-05-11T11:25:06.918Z,31.40
2023-05-11T11:27:48.937Z,33.60
2023-05-11T11:30:28.423Z,36.92
2023-05-11T11:33:16.764Z,36.67
2023-05-11T11:35:43.801Z,37.80
2023-05-11T11:38:13.185Z,39.78
2023-05-11T11:40:50.792Z,43.28
2023-05-11T11:43:24.850Z,42.03
2023-05-11T11:46:00.021Z,47.72
2023-05-11T11:48:31.397Z,45.58
2023-05-11T11:51:04.085Z,48.10
2023-05-11T11:53:41.234Z,44.60
2023-05-11T11:56:15.192Z,49.30
2023-05-11T11:58:42.674Z,45.80
2023-05-11T12:01:12.262Z,42.35
2023-05-11T12:03:41.726Z,33.67
2023-05-11T12:06:10.041Z,39.83
2023-05-11T12:08:39.148Z,42.97
2023-05-11T12:11:06.723Z,42.00
2023-05-11T12:13:35.856Z,37.13
2023-05-11T12:16:09.300Z,34.10
2023-05-11T12:18:36.744Z,43.30
2023-05-11T12:21:03.516Z,44.47
2023-05-11T12:23:31.012Z,47.60
2023-05-11T12:26:05.150Z,49.92
2023-05-11T12:28:36.223Z,47.85
2023-05-11T12:31:02.879Z,47.15
2023-05-11T12:33:29.487Z,43.03
2023-05-11T12:35:57.503Z,43.13
2023-05-11T12:38:24.165Z,42.42
2023-05-11T12:40:58.347Z,42.25
2023-05-11T12:43:25.550Z,42.70
2023-05-11T12:45:52.770Z,50.42
2023-05-11T12:48:19.611Z,45.33
2023-05-11T12:50:46.935Z,46.33
2023-05-11T12:53:19.712Z,45.67
2023-05-11T12:56:00.760Z,42.97
2023-05-11T12:58:39.205Z,53.92
2023-05-11T13:01:09.273Z,43.25
2023-05-11T13:03:37.447Z,48.40
2023-05-11T13:06:06.822Z,53.65
2023-05-11T13:08:33.975Z,47.92
2023-05-11T13:11:17.315Z,47.22
2023-05-11T13:13:44.668Z,51.88
2023-05-11T13:16:11.915Z,48.00
2023-05-11T13:18:38.658Z,46.83
2023-05-11T13:21:09.499Z,46.67
2023-05-11T13:23:36.931Z,47.30
2023-05-11T13:26:04.669Z,45.75
2023-05-11T13:28:33.856Z,69.70
2023-05-11T13:31:01.942Z,77.70
2023-05-11T13:33:28.817Z,76.10
2023-05-11T13:35:55.977Z,80.15
2023-05-11T13:38:22.588Z,78.13
2023-05-11T13:40:49.866Z,72.55
2023-05-11T13:43:16.467Z,68.63
2023-05-11T13:45:43.694Z,63.92
2023-05-11T13:48:10.839Z,54.85
2023-05-11T13:50:38.246Z,62.90
2023-05-11T13:53:04.845Z,59.08
2023-05-11T13:55:32.528Z,55.00
2023-05-11T13:57:59.318Z,47.75
2023-05-11T14:00:26.728Z,48.20
2023-05-11T14:02:53.686Z,51.42
2023-05-11T14:05:21.418Z,40.63
2023-05-11T14:07:49.204Z,48.08
2023-05-11T14:10:17.799Z,46.10
2023-05-11T14:12:44.928Z,44.05
2023-05-11T14:15:12.400Z,40.45
2023-05-11T14:17:41.454Z,37.05
2023-05-11T14:20:09.725Z,40.30
2023-05-11T14:22:36.461Z,47.40
2023-05-11T14:25:03.472Z,49.42
2023-05-11T14:27:30.082Z,49.40
2023-05-11T14:29:57.088Z,62.55
2023-05-11T14:32:23.862Z,68.03
2023-05-11T14:34:51.187Z,66.15
2023-05-11T14:37:17.815Z,63.22
2023-05-11T14:39:45.201Z,66.60
2023-05-11T14:42:11.815Z,55.25
2023-05-11T14:44:39.188Z,58.95
2023-05-11T14:47:07.203Z,65.13
2023-05-11T14:49:34.503Z,62.80
2023-05-11T14:52:01.114Z,60.08
2023-05-11T14:54:28.361Z,55.53
2023-05-11T14:56:56.645Z,61.42
2023-05-11T14:59:24.623Z,61.20
2023-05-11T15:01:51.675Z,53.10
2023-05-11T15:04:18.924Z,53.97
2023-05-11T15:06:46.405Z,48.00
2023-05-11T15:09:13.517Z,55.40
2023-05-11T15:11:40.807Z,60.10
2023-05-11T15:14:07.524Z,49.60
2023-05-11T15:16:34.812Z,49.38
2023-05-11T15:19:01.584Z,53.55
2023-05-11T15:21:28.887Z,51.38
2023-05-11T15:23:55.967Z,52.60
2023-05-11T15:26:23.076Z,53.83
2023-05-11T15:28:50.005Z,49.10
2023-05-11T15:31:17.477Z,49.10
2023-05-11T15:33:44.563Z,56.08
2023-05-11T15:36:13.956Z,53.42
2023-05-11T15:38:41.181Z,61.38
2023-05-11T15:41:09.051Z,61.47
2023-05-11T15:43:35.941Z,65.00
2023-05-11T15:46:07.237Z,64.75
2023-05-11T15:48:36.891Z,63.35
2023-05-11T15:51:04.202Z,65.90
2023-05-11T15:53:31.239Z,58.40
2023-05-11T15:55:58.603Z,49.78
2023-05-11T15:58:25.348Z,51.30
2023-05-11T16:00:52.699Z,53.78
2023-05-11T16:03:19.614Z,49.50
2023-05-11T16:05:47.326Z,50.17
2023-05-11T16:08:14.424Z,57.90
2023-05-11T16:10:41.855Z,53.20
2023-05-11T16:13:09.441Z,52.60
2023-05-11T16:15:36.993Z,54.65
2023-05-11T16:18:05.133Z,54.78
2023-05-11T16:20:32.884Z,48.60
2023-05-11T16:22:59.600Z,48.75
2023-05-11T16:25:26.711Z,52.00
2023-05-11T16:27:53.292Z,51.17
2023-05-11T16:30:25.101Z,57.70
2023-05-11T16:32:53.253Z,50.47
2023-05-11T16:35:21.055Z,49.80
2023-05-11T16:37:48.218Z,58.65
2023-05-11T16:40:19.383Z,54.22
2023-05-11T16:42:47.217Z,57.25
2023-05-11T16:45:14.932Z,52.15
2023-05-11T16:47:41.927Z,50.85
2023-05-11T16:50:09.134Z,57.92
2023-05-11T16:52:35.732Z,54.90
2023-05-11T16:55:02.890Z,50.95
2023-05-11T16:57:29.589Z,49.03
2023-05-11T16:59:57.603Z,49.40
2023-05-11T17:02:24.390Z,31.65
2023-05-11T17:04:51.370Z,22.90
2023-05-11T17:07:18.017Z,15.77
2023-05-11T17:09:45.728Z,19.77
2023-05-11T17:12:12.367Z,22.63
2023-05-11T17:14:39.396Z,21.45
2023-05-11T17:17:07.866Z,16.10
2023-05-11T17:19:35.175Z,19.08
2023-05-11T17:22:02.112Z,14.73
2023-05-11T17:24:29.380Z,12.55
2023-05-11T17:26:56.032Z,15.65
2023-05-11T17:29:23.082Z,13.60
2023-05-11T17:31:51.347Z,15.32
2023-05-11T17:34:19.350Z,11.70
2023-05-11T17:36:46.274Z,12.95
2023-05-11T17:39:13.794Z,12.90
2023-05-11T17:41:40.503Z,11.75
2023-05-11T17:44:08.363Z,15.50
2023-05-11T17:46:35.744Z,12.07
2023-05-11T17:49:04.190Z,10.45
2023-05-11T17:51:31.071Z,10.80
2023-05-11T17:53:58.428Z,14.95
2023-05-11T17:56:25.161Z,11.50
2023-05-11T17:58:52.354Z,11.07
2023-05-11T18:01:19.514Z,13.55
2023-05-11T18:03:47.095Z,12.13
2023-05-11T18:06:14.520Z,12.82
2023-05-11T18:08:41.450Z,12.95
2023-05-11T18:11:10.691Z,13.02
2023-05-11T18:13:37.941Z,11.57
2023-05-11T18:16:05.146Z,13.95
2023-05-11T18:18:32.181Z,12.65
2023-05-11T18:21:05.217Z,11.82
2023-05-11T18:23:32.341Z,12.73
2023-05-11T18:26:00.011Z,12.90
2023-05-11T18:28:26.648Z,12.40
2023-05-11T18:30:54.424Z,12.50
2023-05-11T18:33:21.295Z,18.67
2023-05-11T18:35:50.591Z,13.70
2023-05-11T18:38:17.264Z,17.77
2023-05-11T18:40:45.048Z,15.98
2023-05-11T18:43:12.111Z,13.63
2023-05-11T18:45:41.203Z,14.32
2023-05-11T18:48:08.206Z,19.33
2023-05-11T18:50:36.036Z,16.70
2023-05-11T18:53:02.682Z,20.52
2023-05-11T18:55:35.392Z,15.82
2023-05-11T18:58:08.139Z,18.08
2023-05-11T19:00:38.434Z,15.02
2023-05-11T19:03:05.459Z,21.23
2023-05-11T19:05:32.957Z,16.45
2023-05-11T19:07:59.699Z,15.50
2023-05-11T19:10:26.723Z,17.08
2023-05-11T19:12:53.423Z,16.65
2023-05-11T19:15:20.421Z,19.55
2023-05-11T19:17:47.186Z,18.45
2023-05-11T19:20:14.728Z,20.80
2023-05-11T19:22:41.462Z,19.40
2023-05-11T19:25:09.571Z,18.70
2023-05-11T19:27:36.209Z,19.63
2023-05-11T19:30:04.459Z,18.00
2023-05-11T19:32:31.178Z,18.77
2023-05-11T19:34:58.134Z,18.30
2023-05-11T19:37:24.781Z,20.55
2023-05-11T19:39:51.734Z,18.40
2023-05-11T19:42:23.552Z,17.98
2023-05-11T19:44:58.671Z,16.88
2023-05-11T19:47:25.416Z,19.52
2023-05-11T19:49:52.109Z,18.73
2023-05-11T19:52:19.201Z,24.75
2023-05-11T19:54:46.869Z,21.05
2023-05-11T19:57:13.505Z,23.27
2023-05-11T19:59:40.336Z,21.92
2023-05-11T20:02:07.343Z,19.13
2023-05-11T20:04:34.712Z,22.40
2023-05-11T20:07:01.727Z,20.60
2023-05-11T20:09:28.741Z,19.30
2023-05-11T20:11:56.805Z,20.17
2023-05-11T20:14:24.101Z,24.00
2023-05-11T20:16:51.344Z,22.65
2023-05-11T20:19:17.970Z,22.70
2023-05-11T20:21:45.199Z,22.65
2023-05-11T20:24:11.810Z,22.08
2023-05-11T20:26:38.750Z,34.95
2023-05-11T20:29:06.664Z,44.53
2023-05-11T20:31:34.238Z,46.58
2023-05-11T20:36:31.253Z,40.42
2023-05-11T20:38:58.289Z,40.80
2023-05-11T20:41:25.552Z,29.65
2023-05-11T20:43:52.680Z,20.90
2023-05-11T20:46:20.860Z,20.95
2023-05-11T20:48:51.509Z,20.17
2023-05-11T20:51:23.458Z,20.08
2023-05-11T20:53:50.547Z,19.67
2023-05-11T20:56:17.829Z,20.23
2023-05-11T20:58:47.352Z,17.73
2023-05-11T21:01:14.871Z,17.65
2023-05-11T21:03:41.591Z,18.75
2023-05-11T21:06:09.085Z,17.75
2023-05-11T21:08:35.922Z,17.45
2023-05-11T21:11:03.271Z,17.23
2023-05-11T21:13:30.189Z,18.05
2023-05-11T21:15:58.940Z,17.85
2023-05-11T21:18:31.742Z,20.90
2023-05-11T21:20:59.718Z,18.90
2023-05-11T21:23:26.879Z,18.58
2023-05-11T21:25:55.216Z,21.48
2023-05-11T21:28:22.019Z,21.73
2023-05-11T21:30:50.236Z,22.38
2023-05-11T21:33:16.956Z,21.95
2023-05-11T21:35:44.590Z,21.55
2023-05-11T21:38:14.741Z,24.08
2023-05-11T21:40:42.299Z,22.90
2023-05-11T21:43:10.516Z,23.20
2023-05-11T21:45:38.675Z,26.77
2023-05-11T21:48:05.504Z,22.80
2023-05-11T21:50:32.945Z,21.83
2023-05-11T21:52:59.535Z,28.45
2023-05-11T21:55:26.848Z,24.27
2023-05-11T21:57:54.300Z,23.95
2023-05-11T22:00:22.826Z,26.23
2023-05-11T22:02:50.127Z,25.67
2023-05-11T22:05:17.728Z,27.67
2023-05-11T22:07:44.733Z,27.10
2023-05-11T22:10:12.500Z,26.38
2023-05-11T22:12:39.187Z,29.92
2023-05-11T22:15:08.865Z,33.95
2023-05-11T22:17:39.354Z,31.75
2023-05-11T22:20:07.356Z,30.42
2023-05-11T22:22:35.210Z,32.95
2023-05-11T22:25:02.760Z,34.22
2023-05-11T22:27:30.337Z,34.50
2023-05-11T22:29:57.659Z,37.03
2023-05-11T22:32:27.015Z,37.95
2023-05-11T22:35:01.608Z,33.97
2023-05-11T22:37:28.534Z,40.10
2023-05-11T22:39:56.194Z,40.85
2023-05-11T22:42:23.223Z,40.33
2023-05-11T22:44:50.725Z,40.55
2023-05-11T22:47:17.370Z,39.22
2023-05-11T22:49:44.694Z,44.95
2023-05-11T22:52:11.574Z,41.05
2023-05-11T22:54:39.640Z,48.63
2023-05-11T22:57:06.419Z,45.00
2023-05-11T22:59:34.849Z,45.50
2023-05-11T23:02:03.218Z,49.05
2023-05-11T23:04:32.307Z,49.55
2023-05-11T23:06:59.647Z,49.60
2023-05-11T23:09:27.801Z,51.67
2023-05-11T23:11:54.474Z,52.95
2023-05-11T23:14:21.897Z,51.00
2023-05-11T23:16:48.676Z,52.47
2023-05-11T23:19:15.971Z,53.17
2023-05-11T23:21:42.642Z,52.28
2023-05-11T23:24:10.077Z,47.92
2023-05-11T23:26:37.001Z,57.30
2023-05-11T23:29:04.329Z,48.28
2023-05-11T23:31:32.487Z,50.42
2023-05-11T23:34:00.731Z,54.55
2023-05-11T23:36:27.351Z,51.53
2023-05-11T23:38:54.927Z,49.22
2023-05-11T23:41:22.202Z,48.38
2023-05-11T23:43:49.624Z,54.35
2023-05-11T23:46:16.329Z,49.25
2023-05-11T23:48:43.624Z,47.03
2023-05-11T23:51:10.338Z,47.17
2023-05-11T23:53:38.364Z,52.00
2023-05-11T23:56:05.374Z,48.00
2023-05-11T23:58:32.665Z,46.05
